Time;durP1;ratioP1;P1;durP2;ratioP2;P2;SDS_P1;SDS_P2;PMS_P1;PMS_P2;Temp;Humidity;BMP_temperature;BMP_pressure;BME280_temperature;BME280_humidity;BME280_pressure;Samples;Min_cycle;Max_cycle;Signal;HPM_P1;HPM_P2
2023/06/26 00:01:20;;;;;;;11.10;6.00;;;24.60;70.90;;;;;;4952826;28;20085;-62
2023/06/26 00:03:46;;;;;;;7.40;5.93;;;24.60;71.10;;;;;;4949611;28;20669;-62
2023/06/26 00:06:12;;;;;;;7.72;6.07;;;24.60;71.10;;;;;;4928217;28;20156;-62
2023/06/26 00:08:38;;;;;;;6.28;5.68;;;24.60;71.10;;;;;;4955147;28;20411;-62
2023/06/26 00:11:04;;;;;;;7.63;5.63;;;24.60;71.70;;;;;;4952592;28;20043;-62
2023/06/26 00:13:29;;;;;;;5.93;5.32;;;24.50;71.00;;;;;;4952084;28;20452;-61
2023/06/26 00:15:55;;;;;;;6.97;5.53;;;24.50;71.10;;;;;;4935577;28;20094;-62
2023/06/26 00:18:21;;;;;;;7.57;6.05;;;24.50;71.10;;;;;;4952078;28;20196;-61
2023/06/26 00:20:47;;;;;;;6.10;5.30;;;24.50;71.20;;;;;;4935900;28;20051;-62
2023/06/26 00:23:13;;;;;;;7.65;6.13;;;24.50;71.40;;;;;;4954588;28;20059;-61
2023/06/26 00:25:38;;;;;;;9.48;6.25;;;24.50;71.40;;;;;;4953520;28;20041;-62
2023/06/26 00:28:04;;;;;;;6.70;6.00;;;24.40;71.30;;;;;;4953177;28;20039;-62
2023/06/26 00:30:30;;;;;;;6.10;5.50;;;24.40;71.40;;;;;;4926147;28;20047;-62
2023/06/26 00:32:56;;;;;;;6.40;5.80;;;24.40;71.50;;;;;;4934411;28;21243;-62
2023/06/26 00:35:21;;;;;;;6.72;6.00;;;24.40;71.50;;;;;;4920766;28;20048;-62
2023/06/26 00:37:47;;;;;;;7.10;6.40;;;24.40;71.50;;;;;;4936338;28;20035;-62
2023/06/26 00:40:13;;;;;;;7.32;6.63;;;24.40;71.50;;;;;;4935141;28;20653;-62
2023/06/26 00:42:39;;;;;;;8.02;6.60;;;24.40;71.60;;;;;;4934561;28;20596;-62
2023/06/26 00:45:05;;;;;;;8.57;6.20;;;24.40;71.60;;;;;;4936178;28;20121;-62
2023/06/26 00:47:31;;;;;;;7.70;6.90;;;24.40;72.40;;;;;;4923946;28;20152;-62
2023/06/26 00:49:57;;;;;;;8.68;6.43;;;24.40;71.90;;;;;;4931696;28;20073;-62
2023/06/26 00:52:23;;;;;;;7.45;6.40;;;24.40;71.80;;;;;;4918395;28;20614;-62
2023/06/26 00:54:51;;;;;;;8.48;7.00;;;24.40;71.90;;;;;;4915976;28;20138;-62
2023/06/26 00:57:17;;;;;;;10.30;7.40;;;24.30;71.90;;;;;;4920331;28;20047;-62
2023/06/26 00:59:43;;;;;;;9.23;6.88;;;24.30;72.00;;;;;;4935810;28;20042;-62
2023/06/26 01:02:09;;;;;;;8.07;6.60;;;24.30;72.10;;;;;;4932151;28;20113;-62
2023/06/26 01:04:36;;;;;;;7.85;6.35;;;24.30;72.20;;;;;;4931448;28;20066;-62
2023/06/26 01:07:03;;;;;;;7.32;6.30;;;24.30;72.30;;;;;;4911643;28;20170;-62
2023/06/26 01:09:30;;;;;;;12.05;6.38;;;24.30;72.50;;;;;;4932939;28;20504;-62
2023/06/26 01:11:56;;;;;;;8.45;6.63;;;24.30;72.50;;;;;;4935566;28;20530;-62
2023/06/26 01:14:22;;;;;;;9.68;6.72;;;24.20;72.50;;;;;;4934722;28;20035;-62
2023/06/26 01:16:49;;;;;;;9.90;6.93;;;24.20;72.60;;;;;;4934480;28;20042;-62
2023/06/26 01:19:24;;;;;;;7.25;6.50;;;24.20;72.90;;;;;;4926140;28;20800;-61
2023/06/26 01:21:56;;;;;;;10.18;6.53;;;24.10;73.00;;;;;;4917771;28;20066;-62
2023/06/26 01:24:27;;;;;;;7.28;6.57;;;24.10;73.10;;;;;;4933193;28;20563;-61
2023/06/26 01:26:53;;;;;;;9.85;6.97;;;24.10;73.20;;;;;;4935452;28;20047;-62
2023/06/26 01:29:20;;;;;;;7.38;6.63;;;24.10;73.40;;;;;;4936539;28;20040;-61
2023/06/26 01:31:49;;;;;;;11.18;6.88;;;24.00;73.40;;;;;;4953859;28;20051;-62
2023/06/26 01:34:18;;;;;;;10.90;7.03;;;24.00;73.60;;;;;;4941091;28;20055;-62
2023/06/26 01:36:45;;;;;;;8.30;6.28;;;24.00;73.90;;;;;;4951146;28;20038;-62
2023/06/26 01:39:16;;;;;;;8.15;7.35;;;24.00;74.10;;;;;;4953882;28;20039;-61
2023/06/26 01:41:42;;;;;;;7.47;6.72;;;23.90;74.30;;;;;;4954468;28;20532;-62
2023/06/26 01:44:26;;;;;;;8.63;7.43;;;23.90;74.50;;;;;;4949785;28;20130;-61
2023/06/26 01:47:05;;;;;;;8.18;6.78;;;23.80;74.70;;;;;;4926358;28;20519;-62
2023/06/26 01:49:42;;;;;;;8.93;7.25;;;23.80;74.80;;;;;;4950998;28;20392;-61
2023/06/26 01:52:10;;;;;;;8.35;7.45;;;23.70;75.20;;;;;;4950282;28;20432;-62
2023/06/26 01:55:01;;;;;;;7.97;7.13;;;23.70;75.40;;;;;;4950382;28;20047;-62
2023/06/26 01:57:29;;;;;;;9.30;7.20;;;23.60;75.40;;;;;;4951762;28;20051;-62
2023/06/26 01:59:56;;;;;;;9.43;6.80;;;23.60;75.60;;;;;;4954267;28;20500;-62
2023/06/26 02:02:24;;;;;;;8.95;7.28;;;23.60;75.90;;;;;;4931943;28;20126;-61
2023/06/26 02:04:50;;;;;;;10.88;7.50;;;23.50;76.10;;;;;;4933560;28;20051;-61
2023/06/26 02:07:16;;;;;;;8.95;7.18;;;23.50;76.30;;;;;;4950159;28;20059;-62
2023/06/26 02:09:43;;;;;;;11.02;8.13;;;23.50;76.50;;;;;;4953854;28;20067;-62
2023/06/26 02:12:09;;;;;;;8.48;7.57;;;23.40;76.60;;;;;;4939041;28;20038;-62
2023/06/26 02:14:35;;;;;;;8.60;7.57;;;23.40;76.90;;;;;;4953130;28;20035;-62
2023/06/26 02:17:00;;;;;;;10.90;8.13;;;23.40;77.20;;;;;;4951078;28;20039;-62
2023/06/26 02:19:27;;;;;;;8.80;7.90;;;23.40;77.40;;;;;;4954569;28;20089;-62
2023/06/26 02:21:56;;;;;;;8.60;7.80;;;23.30;77.70;;;;;;4953798;28;20043;-62
2023/06/26 02:24:21;;;;;;;9.73;7.53;;;23.30;78.00;;;;;;4953490;28;20145;-62
2023/06/26 02:26:49;;;;;;;10.52;7.90;;;23.20;78.20;;;;;;4953859;28;20035;-61
2023/06/26 02:29:15;;;;;;;8.80;7.90;;;23.20;78.50;;;;;;4955273;28;20066;-62
2023/06/26 02:31:40;;;;;;;11.68;8.15;;;23.10;78.80;;;;;;4935838;28;20047;-61
2023/06/26 02:34:06;;;;;;;9.93;8.57;;;23.10;79.10;;;;;;4941830;28;20495;-62
2023/06/26 02:36:32;;;;;;;9.93;8.32;;;23.10;79.40;;;;;;4957202;28;20046;-61
2023/06/26 02:38:58;;;;;;;10.75;8.85;;;23.00;79.80;;;;;;4954716;28;20102;-62
2023/06/26 02:41:23;;;;;;;9.43;8.32;;;22.90;80.00;;;;;;4956277;28;20027;-62
2023/06/26 02:43:49;;;;;;;9.95;8.38;;;22.90;80.50;;;;;;4922015;28;20034;-62
2023/06/26 02:46:15;;;;;;;9.63;8.60;;;22.80;80.80;;;;;;4940586;28;20097;-62
2023/06/26 02:48:40;;;;;;;12.00;8.43;;;22.80;81.20;;;;;;4930319;28;20050;-62
2023/06/26 02:51:07;;;;;;;9.80;8.80;;;22.70;81.50;;;;;;4928999;28;20042;-62
2023/06/26 02:53:33;;;;;;;13.40;9.23;;;22.70;81.80;;;;;;4957255;28;20054;-62
2023/06/26 02:55:59;;;;;;;9.82;8.45;;;22.60;82.20;;;;;;4953433;28;20051;-62
2023/06/26 02:58:25;;;;;;;11.57;9.23;;;22.60;82.60;;;;;;4937978;28;20042;-61
2023/06/26 03:00:51;;;;;;;10.18;8.98;;;22.50;83.10;;;;;;4950889;28;20069;-61
2023/06/26 03:03:17;;;;;;;11.02;9.48;;;22.50;83.40;;;;;;4952095;28;20456;-61
2023/06/26 03:05:43;;;;;;;11.68;9.00;;;22.50;83.90;;;;;;4950797;28;20038;-62
2023/06/26 03:08:08;;;;;;;10.95;9.85;;;22.50;84.40;;;;;;4952100;28;20043;-62
2023/06/26 03:10:34;;;;;;;11.80;9.88;;;22.40;84.80;;;;;;4935108;28;20051;-60
2023/06/26 03:13:00;;;;;;;10.65;9.55;;;22.40;85.30;;;;;;4937908;28;20484;-61
2023/06/26 03:15:26;;;;;;;10.65;9.57;;;22.30;85.60;;;;;;4935240;28;20064;-61
2023/06/26 03:17:51;;;;;;;12.25;10.60;;;22.30;86.00;;;;;;4950098;28;20534;-61
2023/06/26 03:20:17;;;;;;;13.13;10.15;;;22.30;86.60;;;;;;4936918;28;20077;-61
2023/06/26 03:22:43;;;;;;;17.95;10.68;;;22.20;87.10;;;;;;4935138;28;20049;-61
2023/06/26 03:25:08;;;;;;;12.05;10.32;;;22.20;87.80;;;;;;4949728;28;20436;-62
2023/06/26 03:27:34;;;;;;;14.23;11.00;;;22.10;88.50;;;;;;4934588;28;20058;-62
2023/06/26 03:30:00;;;;;;;13.05;11.48;;;22.10;89.20;;;;;;4955639;28;20062;-61
2023/06/26 03:32:26;;;;;;;12.77;10.95;;;22.00;89.80;;;;;;4933731;28;20052;-61
2023/06/26 03:34:52;;;;;;;12.18;10.55;;;22.00;90.30;;;;;;4951277;28;20047;-62
2023/06/26 03:37:18;;;;;;;14.50;11.10;;;22.00;90.70;;;;;;4952241;28;20042;-62
2023/06/26 03:39:44;;;;;;;12.73;10.68;;;22.00;91.00;;;;;;4951316;28;20047;-62
2023/06/26 03:42:10;;;;;;;14.27;11.05;;;22.00;91.40;;;;;;4944673;28;20050;-61
2023/06/26 03:44:36;;;;;;;12.93;10.55;;;22.00;91.80;;;;;;4952576;28;20567;-61
2023/06/26 03:47:01;;;;;;;15.50;10.90;;;22.00;92.20;;;;;;4935591;28;20043;-61
2023/06/26 03:49:27;;;;;;;13.23;10.48;;;22.00;92.50;;;;;;4954936;28;20042;-61
2023/06/26 03:51:53;;;;;;;14.75;10.55;;;22.00;92.80;;;;;;4936718;28;20550;-61
2023/06/26 03:54:19;;;;;;;12.60;10.20;;;22.00;93.10;;;;;;4954456;28;20042;-61
2023/06/26 03:56:44;;;;;;;12.27;10.13;;;22.00;93.60;;;;;;4932839;28;20129;-62
2023/06/26 03:59:11;;;;;;;12.98;9.68;;;22.00;94.10;;;;;;4919424;28;20164;-62
2023/06/26 04:01:37;;;;;;;13.18;10.45;;;22.00;94.20;;;;;;4951734;28;20116;-61
2023/06/26 04:04:03;;;;;;;13.38;9.65;;;22.00;94.60;;;;;;4948721;28;20070;-61
2023/06/26 04:06:31;;;;;;;13.43;9.48;;;22.00;94.90;;;;;;4952798;28;20043;-61
2023/06/26 04:08:57;;;;;;;10.98;9.52;;;22.00;95.30;;;;;;4954071;28;20142;-62
2023/06/26 04:11:24;;;;;;;11.80;9.55;;;21.90;95.60;;;;;;4950319;28;20066;-61
2023/06/26 04:13:49;;;;;;;9.60;8.60;;;21.90;95.90;;;;;;4932073;28;20053;-62
2023/06/26 04:16:15;;;;;;;12.38;9.10;;;21.90;96.20;;;;;;4952006;28;20063;-61
2023/06/26 04:18:41;;;;;;;10.15;8.48;;;21.90;96.50;;;;;;4951440;28;20065;-62
2023/06/26 04:21:12;;;;;;;14.30;9.05;;;21.90;96.70;;;;;;4934405;28;20051;-62
2023/06/26 04:23:39;;;;;;;11.75;9.40;;;21.90;97.10;;;;;;4945513;28;20134;-61
2023/06/26 04:26:06;;;;;;;11.63;8.05;;;21.90;97.40;;;;;;4946948;28;20057;-61
2023/06/26 04:28:32;;;;;;;11.27;8.88;;;21.90;97.70;;;;;;4944863;28;20566;-60
2023/06/26 04:30:59;;;;;;;13.38;8.68;;;22.00;98.00;;;;;;4951151;28;20631;-61
2023/06/26 04:33:25;;;;;;;11.13;8.65;;;22.00;98.30;;;;;;4932502;28;20101;-61
2023/06/26 04:35:51;;;;;;;11.45;7.93;;;22.00;98.70;;;;;;4949513;28;20512;-61
2023/06/26 04:38:17;;;;;;;11.98;8.65;;;22.10;98.90;;;;;;4953085;28;20034;-61
2023/06/26 04:40:43;;;;;;;14.55;8.52;;;22.10;99.00;;;;;;4953279;28;20046;-61
2023/06/26 04:43:09;;;;;;;11.43;8.55;;;22.10;99.30;;;;;;4949772;28;20038;-61
2023/06/26 04:45:35;;;;;;;11.63;8.05;;;22.20;99.60;;;;;;4948551;28;20047;-61
2023/06/26 04:48:01;;;;;;;12.98;8.63;;;22.20;99.70;;;;;;4951539;28;20030;-61
2023/06/26 04:50:28;;;;;;;14.10;8.95;;;22.20;99.90;;;;;;4934363;28;20043;-61
2023/06/26 04:52:55;;;;;;;12.68;8.07;;;22.20;99.90;;;;;;4954793;28;20046;-62
2023/06/26 04:55:24;;;;;;;11.90;8.25;;;22.20;99.90;;;;;;4934856;28;20043;-61
2023/06/26 04:57:50;;;;;;;21.35;9.13;;;22.10;99.90;;;;;;4949578;28;20046;-61
2023/06/26 05:00:16;;;;;;;14.68;9.20;;;22.10;99.90;;;;;;4937817;28;20046;-62
2023/06/26 05:02:42;;;;;;;20.63;9.85;;;22.10;99.90;;;;;;4946147;28;20034;-62
2023/06/26 05:05:08;;;;;;;15.20;9.75;;;22.00;99.90;;;;;;4946524;28;20049;-61
2023/06/26 05:07:34;;;;;;;18.95;9.63;;;21.90;99.90;;;;;;4947002;28;20514;-61
2023/06/26 05:10:00;;;;;;;18.73;9.95;;;21.90;99.90;;;;;;4930353;28;20039;-61
2023/06/26 05:12:25;;;;;;;18.40;10.13;;;21.80;99.90;;;;;;4940797;28;20047;-61
2023/06/26 05:14:51;;;;;;;19.70;10.75;;;21.70;99.90;;;;;;4949735;28;20384;-62
2023/06/26 05:17:17;;;;;;;24.67;12.05;;;21.60;99.90;;;;;;4944631;28;20544;-62
2023/06/26 05:19:42;;;;;;;23.15;11.30;;;21.50;99.90;;;;;;4906993;28;20047;-62
2023/06/26 05:22:09;;;;;;;18.48;11.30;;;21.40;99.90;;;;;;4942295;28;21455;-61
2023/06/26 05:24:39;;;;;;;22.13;11.68;;;21.40;99.90;;;;;;4940742;28;20046;-61
2023/06/26 05:27:05;;;;;;;19.42;9.63;;;21.30;99.90;;;;;;4924462;28;20162;-62
2023/06/26 05:29:32;;;;;;;16.65;8.98;;;21.20;99.90;;;;;;4887571;28;20097;-62
2023/06/26 05:31:59;;;;;;;14.48;7.38;;;21.10;99.90;;;;;;4934889;28;20066;-62
2023/06/26 05:34:28;;;;;;;16.80;6.90;;;21.00;99.90;;;;;;4949789;28;20083;-62
2023/06/26 05:36:58;;;;;;;13.55;7.28;;;21.00;99.90;;;;;;4947587;28;20058;-61
2023/06/26 05:39:24;;;;;;;19.20;6.90;;;20.90;99.90;;;;;;4934126;28;20051;-62
2023/06/26 05:41:50;;;;;;;16.52;7.32;;;20.80;99.90;;;;;;4949225;28;20125;-62
2023/06/26 05:44:16;;;;;;;16.38;6.75;;;20.80;99.90;;;;;;4935383;28;20045;-62
2023/06/26 05:46:43;;;;;;;16.73;7.15;;;20.80;99.90;;;;;;4952786;28;20042;-61
2023/06/26 05:49:09;;;;;;;14.50;6.47;;;20.80;99.90;;;;;;4949527;28;20047;-62
2023/06/26 05:51:35;;;;;;;14.10;5.95;;;20.70;99.90;;;;;;4952997;28;20088;-62
2023/06/26 05:54:02;;;;;;;16.27;5.95;;;20.70;99.90;;;;;;4952413;28;20035;-62
2023/06/26 05:56:28;;;;;;;16.58;5.75;;;20.60;99.90;;;;;;4952119;28;20034;-61
2023/06/26 05:58:55;;;;;;;15.50;5.68;;;20.60;99.90;;;;;;4957088;28;20046;-61
2023/06/26 06:01:21;;;;;;;16.77;5.72;;;20.50;99.90;;;;;;4936998;28;20039;-62
2023/06/26 06:03:46;;;;;;;20.35;5.53;;;20.50;99.90;;;;;;4934490;28;20157;-62
2023/06/26 06:06:12;;;;;;;19.13;5.57;;;20.50;99.90;;;;;;4937424;28;20046;-62
2023/06/26 06:08:38;;;;;;;13.75;5.53;;;20.50;99.90;;;;;;4939636;28;20031;-61
2023/06/26 06:11:04;;;;;;;17.15;5.30;;;20.60;99.90;;;;;;4937875;28;20070;-60
2023/06/26 06:13:30;;;;;;;11.73;4.60;;;20.60;99.90;;;;;;4915867;28;20074;-61
2023/06/26 06:15:56;;;;;;;16.83;5.00;;;20.60;99.90;;;;;;4944576;28;20882;-61
2023/06/26 06:18:22;;;;;;;15.50;4.60;;;20.60;99.90;;;;;;4931270;28;20038;-61
2023/06/26 06:20:48;;;;;;;15.55;4.20;;;20.60;99.90;;;;;;4913000;28;20081;-62
2023/06/26 06:23:14;;;;;;;19.60;4.40;;;20.50;99.90;;;;;;4946402;28;20043;-61
2023/06/26 06:25:39;;;;;;;18.38;4.38;;;20.50;99.90;;;;;;4946404;28;20042;-62
2023/06/26 06:28:05;;;;;;;13.45;4.13;;;20.50;99.90;;;;;;4929298;28;20490;-61
2023/06/26 06:30:31;;;;;;;15.00;4.05;;;20.60;99.90;;;;;;4920843;28;20047;-62
2023/06/26 06:32:58;;;;;;;12.98;4.15;;;20.60;99.90;;;;;;4926367;28;20051;-62
2023/06/26 06:35:25;;;;;;;18.65;3.83;;;20.70;99.90;;;;;;4944018;28;20121;-62
2023/06/26 06:37:50;;;;;;;14.77;3.80;;;20.80;99.90;;;;;;4938259;28;20038;-62
2023/06/26 06:40:17;;;;;;;12.20;3.58;;;20.90;99.90;;;;;;4936228;28;20141;-61
2023/06/26 06:42:43;;;;;;;13.80;3.50;;;21.00;99.90;;;;;;4955332;28;20047;-62
2023/06/26 06:45:09;;;;;;;11.75;3.45;;;21.10;99.90;;;;;;4947336;28;20047;-62
2023/06/26 06:47:35;;;;;;;9.93;3.22;;;21.20;99.90;;;;;;4936456;28;20070;-62
2023/06/26 06:50:07;;;;;;;10.52;2.88;;;21.30;99.90;;;;;;4933884;28;21072;-61
2023/06/26 06:52:38;;;;;;;13.35;3.22;;;21.30;99.90;;;;;;4936276;28;20082;-62
2023/06/26 06:55:11;;;;;;;13.38;3.47;;;21.30;99.90;;;;;;4938223;28;20085;-61
2023/06/26 06:57:37;;;;;;;;;;;21.40;99.90;;;;;;4934216;28;20038;-62
2023/06/26 07:00:08;;;;;;;9.52;3.20;;;21.40;99.90;;;;;;4949508;28;19922;-62
2023/06/26 07:02:38;;;;;;;9.20;2.70;;;21.40;99.90;;;;;;4935188;28;20062;-61
2023/06/26 07:05:05;;;;;;;8.65;2.78;;;21.40;99.90;;;;;;4937742;28;20077;-62
2023/06/26 07:07:32;;;;;;;8.07;2.65;;;21.50;99.90;;;;;;4951510;28;20165;-62
2023/06/26 07:10:03;;;;;;;10.55;2.58;;;21.40;99.90;;;;;;4951030;28;20055;-62
2023/06/26 07:12:29;;;;;;;11.50;2.80;;;21.50;99.90;;;;;;4956057;28;20047;-62
2023/06/26 07:14:56;;;;;;;10.95;2.30;;;21.50;99.90;;;;;;4904134;28;20054;-61
2023/06/26 07:17:22;;;;;;;9.98;2.63;;;21.50;99.90;;;;;;4934599;28;20522;-61
2023/06/26 07:19:49;;;;;;;6.60;2.25;;;21.50;99.90;;;;;;4932943;28;20054;-61
2023/06/26 07:22:14;;;;;;;8.02;2.30;;;21.50;99.90;;;;;;4949049;28;20135;-62
2023/06/26 07:24:40;;;;;;;5.75;2.13;;;21.60;99.90;;;;;;4937081;28;20046;-61
2023/06/26 07:27:06;;;;;;;10.15;2.42;;;21.70;99.90;;;;;;4918393;28;20577;-62
2023/06/26 07:29:32;;;;;;;10.00;2.08;;;21.70;99.90;;;;;;4950476;28;20054;-61
2023/06/26 07:31:58;;;;;;;9.35;2.25;;;21.70;99.90;;;;;;4941806;28;20050;-62
2023/06/26 07:34:23;;;;;;;7.32;2.17;;;21.80;99.90;;;;;;4940906;28;20050;-61
2023/06/26 07:36:49;;;;;;;7.20;1.83;;;21.80;99.90;;;;;;4952374;28;20144;-61
2023/06/26 07:39:15;;;;;;;5.65;1.90;;;21.80;99.90;;;;;;4934207;28;20039;-62
2023/06/26 07:41:41;;;;;;;7.20;1.95;;;21.70;99.90;;;;;;4936138;28;20043;-62
2023/06/26 07:44:06;;;;;;;4.13;1.67;;;21.80;99.90;;;;;;4935351;28;20552;-61
2023/06/26 07:46:32;;;;;;;8.82;2.20;;;21.80;99.90;;;;;;4950329;28;20051;-61
2023/06/26 07:48:58;;;;;;;7.60;1.95;;;21.90;99.90;;;;;;4951823;28;20039;-62
2023/06/26 07:51:23;;;;;;;5.75;1.60;;;21.90;99.90;;;;;;4952323;28;20043;-62
2023/06/26 07:53:49;;;;;;;4.20;1.67;;;22.00;99.90;;;;;;4947130;28;20081;-62
2023/06/26 07:56:15;;;;;;;9.45;1.80;;;22.00;99.50;;;;;;4935812;28;20038;-61
2023/06/26 07:58:41;;;;;;;10.65;2.13;;;21.90;99.30;;;;;;4944970;28;20563;-61
2023/06/26 08:01:06;;;;;;;5.47;2.15;;;21.90;99.50;;;;;;4952260;28;20955;-61
2023/06/26 08:03:32;;;;;;;8.65;2.28;;;21.90;99.60;;;;;;4934197;28;20086;-62
2023/06/26 08:05:58;;;;;;;7.20;2.10;;;21.90;99.50;;;;;;4953169;28;20032;-62
2023/06/26 08:08:23;;;;;;;6.50;1.80;;;22.00;99.50;;;;;;4934535;28;20054;-62
2023/06/26 08:10:49;;;;;;;5.97;2.22;;;22.10;99.30;;;;;;4949513;28;20083;-62
2023/06/26 08:13:15;;;;;;;5.60;2.13;;;22.10;99.10;;;;;;4932105;28;20483;-61
2023/06/26 08:15:41;;;;;;;5.10;1.92;;;22.10;99.20;;;;;;4951153;28;20055;-61
2023/06/26 08:18:06;;;;;;;6.50;2.03;;;22.10;99.10;;;;;;4933943;28;20089;-62
2023/06/26 08:20:32;;;;;;;9.07;2.00;;;22.20;99.00;;;;;;4950999;28;20954;-61
2023/06/26 08:22:58;;;;;;;7.38;2.15;;;22.30;98.70;;;;;;4949019;28;20046;-61
2023/06/26 08:25:23;;;;;;;8.25;1.80;;;22.30;98.60;;;;;;4933472;28;20051;-61
2023/06/26 08:27:52;;;;;;;5.80;1.92;;;22.40;98.50;;;;;;4951895;28;20168;-62
2023/06/26 08:30:18;;;;;;;7.55;2.55;;;22.50;98.40;;;;;;4929970;28;20478;-61
2023/06/26 08:32:43;;;;;;;7.00;2.72;;;22.60;98.30;;;;;;4904434;28;20134;-61
2023/06/26 08:35:10;;;;;;;6.40;2.15;;;22.60;97.90;;;;;;4945364;28;20047;-61
2023/06/26 08:37:36;;;;;;;6.82;2.20;;;22.70;97.60;;;;;;4944101;28;20055;-60
2023/06/26 08:40:01;;;;;;;7.90;2.55;;;22.70;97.40;;;;;;4938738;28;20188;-62
2023/06/26 08:42:27;;;;;;;7.43;2.35;;;22.70;97.30;;;;;;4947675;28;20038;-62
2023/06/26 08:44:53;;;;;;;6.00;2.00;;;22.80;97.20;;;;;;4950310;28;20086;-62
2023/06/26 08:47:20;;;;;;;7.00;2.17;;;22.80;97.00;;;;;;4932025;28;20450;-61
2023/06/26 08:49:48;;;;;;;7.13;1.85;;;22.70;96.70;;;;;;4921247;28;20047;-62
2023/06/26 08:52:23;;;;;;;4.75;2.00;;;22.70;96.60;;;;;;4950880;28;20047;-61
2023/06/26 08:54:56;;;;;;;8.85;2.28;;;22.80;96.80;;;;;;4951873;28;20046;-62
2023/06/26 08:57:23;;;;;;;6.63;2.17;;;22.90;96.50;;;;;;4942924;28;21284;-62
2023/06/26 08:59:50;;;;;;;5.93;2.10;;;22.90;96.20;;;;;;4933197;28;20145;-62
2023/06/26 09:02:16;;;;;;;4.95;2.25;;;22.90;96.00;;;;;;4944968;28;20862;-62
2023/06/26 09:04:42;;;;;;;5.22;2.20;;;22.80;95.80;;;;;;4943362;28;20043;-61
2023/06/26 09:07:08;;;;;;;4.68;2.03;;;22.80;95.50;;;;;;4946422;28;20050;-62
2023/06/26 09:09:33;;;;;;;8.32;2.17;;;22.80;95.20;;;;;;4932244;28;20055;-61
2023/06/26 09:12:02;;;;;;;6.50;2.10;;;22.80;95.10;;;;;;4946247;28;20039;-61
2023/06/26 09:14:28;;;;;;;4.47;1.70;;;22.80;94.80;;;;;;4917353;28;20043;-61
2023/06/26 09:16:54;;;;;;;4.82;1.95;;;22.80;94.60;;;;;;4945621;28;20419;-62
2023/06/26 09:19:20;;;;;;;9.63;2.30;;;22.80;94.70;;;;;;4934228;28;20042;-61
2023/06/26 09:21:49;;;;;;;5.53;2.20;;;22.90;94.20;;;;;;4948647;28;20049;-61
2023/06/26 09:24:16;;;;;;;6.47;2.25;;;23.10;94.00;;;;;;4947653;28;20499;-61
2023/06/26 09:26:42;;;;;;;6.93;2.30;;;23.20;93.80;;;;;;4943619;28;20070;-63
2023/06/26 09:29:09;;;;;;;5.30;1.80;;;23.10;93.80;;;;;;4944219;28;20047;-62
2023/06/26 09:31:39;;;;;;;10.75;2.58;;;23.10;93.90;;;;;;4948878;28;20081;-61
2023/06/26 09:34:05;;;;;;;7.50;2.28;;;23.30;94.20;;;;;;4955824;28;20058;-61
2023/06/26 09:36:33;;;;;;;7.65;2.35;;;23.50;93.90;;;;;;4945688;28;20138;-62
2023/06/26 09:39:01;;;;;;;7.75;2.58;;;23.70;93.30;;;;;;4941832;28;20055;-60
2023/06/26 09:41:27;;;;;;;4.00;1.90;;;23.70;93.10;;;;;;4941989;28;20077;-62
2023/06/26 09:43:53;;;;;;;6.95;2.40;;;23.70;92.90;;;;;;4943838;28;20859;-61
2023/06/26 09:46:30;;;;;;;4.22;2.05;;;23.50;92.40;;;;;;4951512;28;20095;-61
2023/06/26 09:49:05;;;;;;;6.30;2.60;;;23.50;92.20;;;;;;4925561;28;20051;-61
2023/06/26 09:51:36;;;;;;;6.68;2.38;;;23.40;91.50;;;;;;4947949;28;20497;-61
2023/06/26 09:54:03;;;;;;;7.50;2.70;;;23.40;91.30;;;;;;4941696;28;20042;-62
2023/06/26 09:56:29;;;;;;;7.97;3.15;;;23.40;91.00;;;;;;4947325;28;20062;-61
2023/06/26 09:59:03;;;;;;;7.43;2.30;;;23.40;91.20;;;;;;4940194;28;20050;-61
2023/06/26 10:01:31;;;;;;;7.57;3.10;;;23.70;91.30;;;;;;4955185;28;20213;-59
2023/06/26 10:03:57;;;;;;;5.85;2.90;;;23.90;91.00;;;;;;4956646;28;20055;-60
2023/06/26 10:06:47;;;;;;;5.30;2.47;;;24.00;90.10;;;;;;4957816;28;20377;-61
2023/06/26 10:09:16;;;;;;;4.05;2.40;;;23.90;90.20;;;;;;4933682;28;20503;-60
2023/06/26 10:12:05;;;;;;;5.13;2.78;;;23.80;89.20;;;;;;4941421;28;20039;-61
2023/06/26 10:14:34;;;;;;;4.38;2.83;;;23.60;88.60;;;;;;4951587;28;20651;-58
2023/06/26 10:17:03;;;;;;;8.55;3.03;;;23.70;89.00;;;;;;4929089;28;20181;-59
2023/06/26 10:19:30;;;;;;;5.57;2.55;;;23.90;88.70;;;;;;4937606;28;20054;-59
2023/06/26 10:21:58;;;;;;;6.57;2.65;;;24.00;87.10;;;;;;4940223;28;20044;-59
2023/06/26 10:24:26;;;;;;;5.00;2.80;;;24.20;85.70;;;;;;4954685;28;20057;-58
2023/06/26 10:27:21;;;;;;;8.30;3.13;;;24.30;85.00;;;;;;4953438;28;20043;-58
2023/06/26 10:30:00;;;;;;;6.43;2.90;;;24.40;84.80;;;;;;4951807;28;20048;-59
2023/06/26 10:32:27;;;;;;;8.00;2.80;;;24.20;84.10;;;;;;4954135;28;20085;-58
2023/06/26 10:34:53;;;;;;;4.55;2.80;;;24.10;84.70;;;;;;4954722;28;20129;-58
2023/06/26 10:37:19;;;;;;;4.75;2.80;;;24.00;84.40;;;;;;4953369;28;20067;-59
2023/06/26 10:39:50;;;;;;;4.25;2.90;;;24.10;84.90;;;;;;4953799;28;20066;-59
2023/06/26 10:42:28;;;;;;;9.00;2.83;;;24.20;84.90;;;;;;4954151;28;20051;-59
2023/06/26 10:44:54;;;;;;;5.70;2.65;;;24.20;85.10;;;;;;4933390;28;20054;-59
2023/06/26 10:47:32;;;;;;;5.78;2.88;;;24.10;83.50;;;;;;4957145;28;20039;-58
2023/06/26 10:50:24;;;;;;;8.65;3.08;;;23.90;83.20;;;;;;4955532;28;20627;-58
2023/06/26 10:53:13;;;;;;;4.35;2.40;;;23.70;83.20;;;;;;4951233;28;20074;-59
2023/06/26 10:55:59;;;;;;;4.13;2.38;;;23.50;82.90;;;;;;4957879;28;20045;-59
2023/06/26 10:58:32;;;;;;;5.10;2.50;;;23.80;83.70;;;;;;4955198;28;20126;-59
2023/06/26 11:01:20;;;;;;;5.25;2.67;;;24.10;82.50;;;;;;4956922;28;20130;-57
2023/06/26 11:03:51;;;;;;;8.65;2.80;;;24.30;81.90;;;;;;4957368;28;20039;-59
2023/06/26 11:06:21;;;;;;;6.63;1.88;;;24.20;82.60;;;;;;4956285;28;20054;-57
2023/06/26 11:08:54;;;;;;;8.52;2.33;;;24.20;81.70;;;;;;4943293;28;20965;-60
2023/06/26 11:11:20;;;;;;;12.30;2.00;;;24.20;81.00;;;;;;4933751;28;20034;-60
2023/06/26 11:13:47;;;;;;;7.15;2.10;;;24.30;80.20;;;;;;4933899;28;20059;-57
2023/06/26 11:16:14;;;;;;;6.20;2.05;;;24.40;79.60;;;;;;4953416;28;20124;-58
2023/06/26 11:18:40;;;;;;;5.78;1.63;;;24.40;78.90;;;;;;4935190;28;20408;-58
2023/06/26 11:21:11;;;;;;;4.97;1.83;;;24.50;78.70;;;;;;4957139;28;20045;-57
2023/06/26 11:23:37;;;;;;;8.05;2.13;;;24.60;78.80;;;;;;4951199;28;20086;-57
2023/06/26 11:26:16;;;;;;;8.85;2.10;;;24.50;77.70;;;;;;4951314;28;20129;-57
2023/06/26 11:28:54;;;;;;;10.02;2.10;;;24.30;76.80;;;;;;4937433;28;20039;-57
2023/06/26 11:31:31;;;;;;;4.53;1.63;;;24.30;77.60;;;;;;4942917;28;20055;-57
2023/06/26 11:34:02;;;;;;;5.80;1.50;;;24.40;77.50;;;;;;4948861;28;20528;-58
2023/06/26 11:36:29;;;;;;;5.50;1.97;;;24.40;77.70;;;;;;4934508;28;20526;-57
2023/06/26 11:38:56;;;;;;;7.30;1.63;;;24.30;77.10;;;;;;4951762;28;20312;-57
2023/06/26 11:41:23;;;;;;;5.05;1.60;;;24.30;77.70;;;;;;4922130;28;20058;-57
2023/06/26 11:43:49;;;;;;;8.57;1.75;;;24.60;78.00;;;;;;4934325;28;21187;-57
2023/06/26 11:46:17;;;;;;;7.35;1.60;;;24.90;77.00;;;;;;4939141;28;20445;-58
2023/06/26 11:48:44;;;;;;;7.45;1.70;;;25.10;76.20;;;;;;4933339;28;20047;-57
2023/06/26 11:51:12;;;;;;;5.47;1.50;;;24.90;74.80;;;;;;4945578;28;20035;-57
2023/06/26 11:53:42;;;;;;;7.28;1.50;;;24.90;73.70;;;;;;4952117;28;20579;-57
2023/06/26 11:56:12;;;;;;;6.30;2.03;;;25.00;73.40;;;;;;4949420;28;20050;-57
2023/06/26 11:59:00;;;;;;;4.57;1.67;;;25.10;73.10;;;;;;4950642;28;20039;-57
2023/06/26 12:01:27;;;;;;;6.45;1.63;;;25.00;73.50;;;;;;4944743;28;20079;-57
2023/06/26 12:04:00;;;;;;;5.40;1.67;;;25.10;72.80;;;;;;4942068;28;20051;-58
2023/06/26 12:06:26;;;;;;;6.13;1.75;;;25.30;71.90;;;;;;4949095;28;20043;-58
2023/06/26 12:08:52;;;;;;;4.50;1.50;;;25.30;71.40;;;;;;4941376;28;20093;-57
2023/06/26 12:11:18;;;;;;;5.45;1.75;;;25.20;70.90;;;;;;4927411;28;20126;-58
2023/06/26 12:13:44;;;;;;;9.50;1.85;;;25.30;70.90;;;;;;4947864;28;20042;-57
2023/06/26 12:16:10;;;;;;;5.03;1.88;;;25.20;71.10;;;;;;4940028;28;20039;-57
2023/06/26 12:18:36;;;;;;;5.75;1.98;;;25.20;71.00;;;;;;4931877;28;20039;-58
2023/06/26 12:21:02;;;;;;;7.38;1.73;;;25.00;71.10;;;;;;4950635;28;20534;-57
2023/06/26 12:23:38;;;;;;;9.40;1.88;;;25.00;71.00;;;;;;4950031;28;20421;-57
2023/06/26 12:26:17;;;;;;;10.02;2.05;;;24.80;70.70;;;;;;4953826;28;20116;-58
2023/06/26 12:28:44;;;;;;;6.80;2.40;;;24.70;71.00;;;;;;4936385;28;20046;-60
2023/06/26 12:31:17;;;;;;;7.10;1.88;;;24.80;71.10;;;;;;4944958;28;20512;-60
2023/06/26 12:33:44;;;;;;;6.18;2.25;;;25.00;69.40;;;;;;4949144;28;20094;-60
2023/06/26 12:36:13;;;;;;;10.60;2.05;;;24.80;69.30;;;;;;4949754;28;20046;-57
2023/06/26 12:38:40;;;;;;;8.65;1.83;;;24.70;70.10;;;;;;4946603;28;20122;-60
2023/06/26 12:41:11;;;;;;;7.88;1.73;;;24.60;70.00;;;;;;4949613;28;20046;-57
2023/06/26 12:43:39;;;;;;;6.03;1.50;;;24.50;69.70;;;;;;4932059;28;20038;-57
2023/06/26 12:46:05;;;;;;;7.40;1.42;;;24.60;70.40;;;;;;4946494;28;20130;-60